Time;durP1;ratioP1;P1;durP2;ratioP2;P2;SDS_P1;SDS_P2;PMS_P1;PMS_P2;Temp;Humidity;BMP_temperature;BMP_pressure;BME280_temperature;BME280_humidity;BME280_pressure;Samples;Min_cycle;Max_cycle;Signal;HPM_P1;HPM_P2
2022/10/23 00:01:40;;;;;;;2.42;2.22;;;;;;;30.08;27.17;98356.44;5033347;28;20475;-81
2022/10/23 00:04:19;;;;;;;3.72;2.75;;;;;;;30.23;26.82;98359.44;5032653;28;20033;-81
2022/10/23 00:06:46;;;;;;;2.60;2.40;;;;;;;30.41;26.40;98368.03;5033006;28;20108;-81
2022/10/23 00:09:15;;;;;;;4.45;3.00;;;;;;;30.37;26.66;98370.22;5032908;28;20048;-78
2022/10/23 00:11:43;;;;;;;5.50;2.72;;;;;;;30.69;26.31;98367.56;5031441;28;20415;-81
2022/10/23 00:14:10;;;;;;;2.67;2.38;;;;;;;30.45;26.45;98375.13;5033624;28;20033;-81
2022/10/23 00:16:36;;;;;;;2.67;2.40;;;;;;;30.35;26.80;98373.53;5031088;28;20055;-78
2022/10/23 00:19:03;;;;;;;2.72;2.28;;;;;;;30.47;26.50;98377.47;5032268;28;20111;-78
2022/10/23 00:21:29;;;;;;;2.50;2.20;;;;;;;30.31;26.71;98384.19;5031059;28;20029;-79
2022/10/23 00:23:55;;;;;;;4.10;2.92;;;;;;;30.29;26.59;98381.06;5033284;28;20033;-78
2022/10/23 00:26:22;;;;;;;2.22;2.03;;;;;;;30.46;26.32;98385.19;5031272;28;20391;-79
2022/10/23 00:28:53;;;;;;;3.45;2.70;;;;;;;30.56;26.66;98398.09;5031846;28;20034;-79
2022/10/23 00:31:21;;;;;;;2.97;2.75;;;;;;;30.71;26.20;98395.44;5021249;28;20052;-79
2022/10/23 00:33:48;;;;;;;2.92;2.63;;;;;;;30.87;25.82;98392.28;5031171;28;20072;-78
2022/10/23 00:36:16;;;;;;;4.47;2.50;;;;;;;30.74;25.79;98400.94;5029379;28;20040;-78
2022/10/23 00:38:42;;;;;;;2.85;2.47;;;;;;;30.53;26.12;98392.56;5032528;28;20065;-78
2022/10/23 00:41:14;;;;;;;3.38;2.72;;;;;;;30.65;26.16;98397.31;5032910;28;20040;-79
2022/10/23 00:44:06;;;;;;;3.65;2.63;;;;;;;30.75;26.02;98399.69;5033078;28;20063;-79
2022/10/23 00:46:33;;;;;;;3.47;2.72;;;;;;;30.70;25.86;98396.69;5017504;28;20040;-78
2022/10/23 00:49:00;;;;;;;2.42;1.85;;;;;;;30.96;25.84;98400.03;5021057;28;20569;-78
2022/10/23 00:51:30;;;;;;;2.55;2.25;;;;;;;30.91;25.72;98403.50;5024496;28;20033;-80
2022/10/23 00:53:59;;;;;;;3.85;2.20;;;;;;;30.92;25.53;98403.03;5023058;28;20033;-79
2022/10/23 00:56:25;;;;;;;2.47;2.22;;;;;;;31.06;25.26;98399.56;5037132;28;20033;-79
2022/10/23 00:58:52;;;;;;;2.85;2.33;;;;;;;31.08;25.35;98399.88;5026411;28;20042;-79
2022/10/23 01:01:20;;;;;;;2.45;2.25;;;;;;;30.99;25.30;98402.72;5032027;28;20171;-79
2022/10/23 01:03:48;;;;;;;4.03;2.33;;;;;;;30.96;25.30;98397.19;5023494;28;20069;-78
2022/10/23 01:06:32;;;;;;;2.40;2.20;;;;;;;30.73;25.84;98405.06;5028501;28;20025;-78
2022/10/23 01:09:22;;;;;;;2.80;1.90;;;;;;;30.83;26.00;98402.22;5032771;28;20159;-78
2022/10/23 01:12:09;;;;;;;5.25;2.55;;;;;;;30.67;25.96;98400.47;5045087;28;20044;-79
2022/10/23 01:14:47;;;;;;;2.90;2.55;;;;;;;30.63;26.13;98406.31;5023102;28;20037;-78
2022/10/23 01:17:28;;;;;;;1.75;1.63;;;;;;;30.57;26.38;98411.00;5032861;28;20044;-78
2022/10/23 01:20:10;;;;;;;2.63;2.22;;;;;;;30.61;25.89;98406.00;5014580;28;20495;-78
2022/10/23 01:22:36;;;;;;;2.08;1.90;;;;;;;30.41;26.11;98402.78;5012612;28;20450;-79
2022/10/23 01:25:40;;;;;;;2.50;2.30;;;;;;;30.41;25.99;98405.63;5017061;28;20096;-78
2022/10/23 01:28:11;;;;;;;2.40;2.00;;;;;;;30.51;25.91;98415.72;5029876;28;20092;-78
2022/10/23 01:30:43;;;;;;;2.38;2.17;;;;;;;30.46;26.01;98415.56;5033176;28;20041;-78
2022/10/23 01:33:24;;;;;;;2.47;2.28;;;;;;;30.27;26.34;98426.03;5028951;28;20045;-78
2022/10/23 01:35:59;;;;;;;1.95;1.75;;;;;;;30.19;26.19;98421.94;5023842;28;20100;-78
2022/10/23 01:38:43;;;;;;;2.78;1.92;;;;;;;30.39;26.13;98422.31;5016582;28;20041;-81
2022/10/23 01:41:16;;;;;;;2.10;1.90;;;;;;;30.80;25.58;98412.47;5032006;28;20045;-81
2022/10/23 01:43:55;;;;;;;2.45;2.00;;;;;;;31.07;25.25;98411.69;5027880;28;20446;-80
2022/10/23 01:46:23;;;;;;;1.60;1.50;;;;;;;31.04;25.13;98419.09;5025611;28;20087;-78
2022/10/23 01:48:54;;;;;;;1.77;1.63;;;;;;;31.21;24.83;98411.03;5033205;28;20116;-78
2022/10/23 01:51:24;;;;;;;2.30;1.75;;;;;;;31.38;24.68;98421.56;5035269;28;20083;-78
2022/10/23 01:53:55;;;;;;;1.88;1.63;;;;;;;31.53;24.22;98413.19;5035523;28;20033;-78
2022/10/23 01:56:32;;;;;;;4.20;1.63;;;;;;;31.69;24.48;98423.41;5028510;28;20030;-78
2022/10/23 01:59:02;;;;;;;1.98;1.40;;;;;;;31.59;24.29;98422.66;5033827;28;20379;-79
2022/10/23 02:01:31;;;;;;;3.42;1.42;;;;;;;31.78;24.44;98415.66;5032377;28;20075;-78
2022/10/23 02:04:02;;;;;;;2.67;1.30;;;;;;;31.82;24.11;98419.09;5034028;28;20068;-78
2022/10/23 02:06:28;;;;;;;1.17;1.17;;;;;;;31.67;24.01;98423.13;5033010;28;20033;-78
2022/10/23 02:08:55;;;;;;;1.67;1.55;;;;;;;31.54;24.31;98428.19;5032048;28;20038;-79
2022/10/23 02:11:21;;;;;;;2.15;1.30;;;;;;;31.57;24.19;98430.06;5035149;28;20048;-78
2022/10/23 02:14:02;;;;;;;2.42;1.67;;;;;;;31.47;24.72;98426.47;5034270;28;20030;-78
2022/10/23 02:16:50;;;;;;;1.25;1.15;;;;;;;31.53;24.50;98435.91;5027077;28;20033;-78
2022/10/23 02:19:47;;;;;;;2.65;1.40;;;;;;;31.61;24.35;98440.00;5028865;28;20049;-78
2022/10/23 02:22:22;;;;;;;1.77;1.60;;;;;;;31.47;24.65;98443.50;5030867;28;20053;-80
2022/10/23 02:25:10;;;;;;;2.25;1.70;;;;;;;31.60;24.89;98437.66;5033674;28;20498;-80
2022/10/23 02:27:44;;;;;;;1.35;1.25;;;;;;;31.73;24.36;98441.84;5022945;28;20042;-81
2022/10/23 02:30:13;;;;;;;1.25;1.15;;;;;;;31.85;23.99;98438.03;5020723;28;20041;-81
2022/10/23 02:32:44;;;;;;;2.28;1.25;;;;;;;31.64;24.55;98441.09;5035308;28;20037;-78
2022/10/23 02:35:11;;;;;;;2.95;1.42;;;;;;;31.40;24.78;98438.91;5032237;28;20030;-78
2022/10/23 02:37:37;;;;;;;1.80;1.33;;;;;;;31.22;25.22;98443.81;5049121;28;20022;-78
2022/10/23 02:40:04;;;;;;;1.20;1.10;;;;;;;31.52;24.42;98434.34;5033464;28;20029;-79
2022/10/23 02:42:44;;;;;;;3.50;1.40;;;;;;;31.66;24.30;98439.34;5033565;28;20423;-78
2022/10/23 02:45:33;;;;;;;1.00;1.00;;;;;;;31.64;24.21;98441.88;5033157;28;20403;-78
2022/10/23 02:48:11;;;;;;;1.38;1.08;;;;;;;31.19;24.84;98436.25;5033501;28;20018;-79
2022/10/23 02:50:45;;;;;;;1.25;1.15;;;;;;;31.05;24.58;98449.03;5025695;28;20088;-79
2022/10/23 02:53:34;;;;;;;1.65;1.20;;;;;;;30.94;24.99;98443.06;5030386;28;20037;-78
2022/10/23 02:56:29;;;;;;;1.33;0.90;;;;;;;31.11;24.52;98449.97;5023152;28;20029;-78
2022/10/23 02:59:05;;;;;;;1.20;1.10;;;;;;;30.91;24.59;98446.03;5027331;28;20514;-79
2022/10/23 03:01:51;;;;;;;1.48;1.38;;;;;;;31.01;24.56;98451.25;5028805;28;20029;-78
2022/10/23 03:04:20;;;;;;;0.95;0.95;;;;;;;31.23;24.61;98451.84;5023612;28;20036;-78
2022/10/23 03:06:46;;;;;;;1.33;1.10;;;;;;;31.27;24.48;98458.16;5029485;28;20360;-78
2022/10/23 03:09:12;;;;;;;1.00;0.90;;;;;;;31.31;24.33;98453.13;5029474;28;20041;-78
2022/10/23 03:11:38;;;;;;;1.10;1.00;;;;;;;31.52;23.84;98459.09;5033912;28;20052;-78
2022/10/23 03:14:04;;;;;;;1.55;0.90;;;;;;;31.68;23.77;98470.91;5034403;28;20084;-78
2022/10/23 03:16:31;;;;;;;1.90;1.00;;;;;;;31.81;23.94;98465.78;5034702;28;20033;-78
2022/10/23 03:18:57;;;;;;;2.10;1.20;;;;;;;31.63;23.47;98465.84;5034109;28;20055;-78
2022/10/23 03:21:23;;;;;;;1.00;0.90;;;;;;;31.16;24.15;98466.34;5023114;28;20048;-78
2022/10/23 03:23:49;;;;;;;2.30;0.90;;;;;;;31.17;24.29;98470.78;5027012;28;20099;-78
2022/10/23 03:26:15;;;;;;;2.15;0.93;;;;;;;31.37;23.94;98467.44;5033575;28;20396;-78
2022/10/23 03:28:41;;;;;;;0.85;0.85;;;;;;;31.35;24.01;98467.13;5025186;28;20113;-78
2022/10/23 03:31:08;;;;;;;0.90;0.90;;;;;;;31.49;24.21;98460.03;5014852;28;20120;-78
2022/10/23 03:33:34;;;;;;;1.20;1.00;;;;;;;31.56;24.14;98457.66;5029739;28;20503;-78
2022/10/23 03:36:00;;;;;;;1.48;0.98;;;;;;;31.71;23.63;98464.28;5014621;28;20062;-78
2022/10/23 03:38:26;;;;;;;1.00;0.90;;;;;;;31.82;23.79;98463.75;5014570;28;20446;-78
2022/10/23 03:40:52;;;;;;;1.00;0.90;;;;;;;31.92;23.32;98460.41;5028321;28;20037;-78
2022/10/23 03:43:19;;;;;;;0.95;0.95;;;;;;;31.82;23.54;98460.91;5033610;28;20037;-78
2022/10/23 03:45:45;;;;;;;2.92;1.10;;;;;;;31.50;24.25;98464.47;5044486;28;20033;-78
2022/10/23 03:48:12;;;;;;;1.67;1.00;;;;;;;30.85;24.74;98462.09;5034183;28;20092;-78
2022/10/23 03:50:38;;;;;;;1.23;1.00;;;;;;;30.90;24.86;98464.31;5033635;28;20502;-78
2022/10/23 03:53:04;;;;;;;3.78;1.02;;;;;;;31.03;24.60;98468.59;5033632;28;20037;-78
2022/10/23 03:55:30;;;;;;;1.02;0.90;;;;;;;31.19;24.40;98461.78;5033832;28;20038;-78
2022/10/23 03:57:57;;;;;;;2.63;1.05;;;;;;;31.25;24.44;98465.59;5033655;28;20105;-78
2022/10/23 04:00:23;;;;;;;1.08;0.90;;;;;;;31.38;23.84;98472.66;5032651;28;20153;-78
2022/10/23 04:02:49;;;;;;;1.58;0.90;;;;;;;31.31;24.03;98469.34;5027960;28;20025;-78
2022/10/23 04:05:15;;;;;;;1.00;1.00;;;;;;;31.30;24.21;98468.56;5032667;28;20060;-78
2022/10/23 04:07:41;;;;;;;0.80;0.80;;;;;;;31.23;23.75;98471.72;5032747;28;20514;-78
2022/10/23 04:10:08;;;;;;;1.30;0.88;;;;;;;31.07;24.11;98472.03;5033031;28;20108;-78
2022/10/23 04:12:35;;;;;;;0.73;0.70;;;;;;;30.75;24.46;98464.91;5032822;28;20378;-78
2022/10/23 04:15:01;;;;;;;0.93;0.88;;;;;;;30.42;25.01;98472.41;5033478;28;20505;-79
2022/10/23 04:17:27;;;;;;;1.13;0.90;;;;;;;30.63;24.79;98476.38;5029993;28;20545;-78
2022/10/23 04:19:53;;;;;;;0.82;0.82;;;;;;;30.93;24.44;98472.66;5028439;28;20046;-78
2022/10/23 04:22:19;;;;;;;0.60;0.60;;;;;;;31.21;24.25;98473.44;5023286;28;20132;-78
2022/10/23 04:24:46;;;;;;;1.98;0.77;;;;;;;31.30;23.89;98476.28;5024748;28;20043;-78
2022/10/23 04:27:13;;;;;;;2.05;1.02;;;;;;;31.28;23.94;98478.81;5031830;28;20037;-78
2022/10/23 04:29:39;;;;;;;1.13;1.02;;;;;;;31.14;23.98;98477.41;5023745;28;20447;-79
2022/10/23 04:32:06;;;;;;;0.80;0.80;;;;;;;30.85;24.35;98476.25;5030119;28;20479;-79
2022/10/23 04:34:33;;;;;;;1.23;0.68;;;;;;;31.01;23.87;98476.78;5029486;28;20521;-78
2022/10/23 04:36:59;;;;;;;1.05;0.95;;;;;;;31.19;23.83;98478.81;5031512;28;20495;-78
2022/10/23 04:39:25;;;;;;;1.15;0.88;;;;;;;31.40;23.47;98477.84;5032420;28;20033;-78
2022/10/23 04:41:51;;;;;;;0.93;0.90;;;;;;;31.23;24.02;98474.56;5029120;28;20099;-78
2022/10/23 04:44:17;;;;;;;0.98;0.80;;;;;;;31.14;23.90;98471.72;5031960;28;20044;-78
2022/10/23 04:46:43;;;;;;;0.90;0.90;;;;;;;31.22;23.84;98477.88;5030985;28;20029;-78
2022/10/23 04:49:09;;;;;;;1.20;0.90;;;;;;;31.39;23.92;98482.72;5031566;28;20494;-78
2022/10/23 04:51:37;;;;;;;1.17;0.80;;;;;;;31.20;23.76;98469.81;5029340;28;20132;-78
2022/10/23 04:54:04;;;;;;;0.88;0.85;;;;;;;30.60;24.86;98471.63;5030798;28;20053;-78
2022/10/23 04:56:30;;;;;;;0.90;0.90;;;;;;;30.76;24.62;98474.19;5029953;28;20069;-80
2022/10/23 04:58:56;;;;;;;1.38;1.27;;;;;;;30.89;23.98;98474.06;5031530;28;20116;-78
2022/10/23 05:01:22;;;;;;;1.77;1.23;;;;;;;30.99;24.40;98475.66;5030966;28;20524;-78
2022/10/23 05:03:48;;;;;;;1.17;1.00;;;;;;;31.22;23.93;98475.84;5033669;28;20522;-78
2022/10/23 05:06:15;;;;;;;0.98;0.98;;;;;;;31.40;23.47;98481.47;5036669;28;20108;-78
2022/10/23 05:08:41;;;;;;;1.23;0.98;;;;;;;30.99;23.94;98470.00;5031715;28;20046;-78
2022/10/23 05:11:07;;;;;;;0.70;0.70;;;;;;;31.04;24.38;98461.63;5035481;28;20030;-78
2022/10/23 05:13:33;;;;;;;0.80;0.80;;;;;;;31.07;23.59;98474.88;5034275;28;20042;-78
2022/10/23 05:16:00;;;;;;;2.25;0.70;;;;;;;30.72;24.28;98468.69;5035269;28;20034;-78
2022/10/23 05:18:36;;;;;;;0.70;0.70;;;;;;;30.87;24.31;98466.03;5035310;28;20043;-78
2022/10/23 05:21:25;;;;;;;0.95;0.95;;;;;;;31.01;24.07;98470.31;5028803;28;20033;-79
2022/10/23 05:23:53;;;;;;;0.85;0.80;;;;;;;31.12;23.98;98470.63;5032749;28;20076;-78
2022/10/23 05:26:21;;;;;;;0.82;0.82;;;;;;;31.26;23.27;98472.81;5033585;28;20037;-78
2022/10/23 05:28:47;;;;;;;1.20;1.10;;;;;;;31.26;23.30;98475.66;5035212;28;20379;-78
2022/10/23 05:31:14;;;;;;;0.70;0.70;;;;;;;31.06;22.92;98466.84;5031286;28;20514;-78
2022/10/23 05:33:40;;;;;;;0.60;0.60;;;;;;;30.39;23.77;98475.38;5034953;28;20038;-78
2022/10/23 05:36:07;;;;;;;0.68;0.60;;;;;;;30.06;24.40;98467.34;5034341;28;20025;-79
2022/10/23 05:38:35;;;;;;;1.38;0.93;;;;;;;30.39;24.28;98469.69;5035413;28;20026;-78
2022/10/23 05:41:01;;;;;;;0.73;0.73;;;;;;;30.81;23.69;98469.97;5035311;28;20516;-78
2022/10/23 05:43:30;;;;;;;1.10;1.00;;;;;;;30.96;23.59;98468.09;5031472;28;20029;-78
2022/10/23 05:45:56;;;;;;;0.82;0.82;;;;;;;31.12;23.49;98470.63;5036545;28;20092;-78
2022/10/23 05:48:23;;;;;;;1.20;0.90;;;;;;;31.32;23.10;98476.63;5036179;28;20036;-78
2022/10/23 05:50:49;;;;;;;0.63;0.63;;;;;;;31.35;22.99;98469.97;5035710;28;20112;-79
2022/10/23 05:53:15;;;;;;;0.65;0.65;;;;;;;31.03;23.56;98473.47;5034605;28;20124;-79
2022/10/23 05:55:41;;;;;;;0.77;0.77;;;;;;;30.91;23.54;98474.38;5035509;28;20092;-78
2022/10/23 05:58:07;;;;;;;0.80;0.80;;;;;;;30.60;23.83;98477.31;5034434;28;20449;-79
2022/10/23 06:00:33;;;;;;;0.68;0.68;;;;;;;30.02;25.02;98469.53;5032594;28;20037;-79
2022/10/23 06:03:00;;;;;;;0.70;0.70;;;;;;;30.02;24.94;98465.91;5031552;28;20029;-79
2022/10/23 06:05:26;;;;;;;0.70;0.70;;;;;;;30.33;24.26;98475.19;5027501;28;20660;-79
2022/10/23 06:07:57;;;;;;;0.80;0.80;;;;;;;30.21;24.73;98478.09;5032530;28;20550;-78
2022/10/23 06:10:23;;;;;;;0.80;0.80;;;;;;;30.40;24.37;98472.06;5029603;28;20075;-78
2022/10/23 06:12:50;;;;;;;0.80;0.80;;;;;;;30.80;24.31;98479.72;5033934;28;20048;-78
2022/10/23 06:15:16;;;;;;;0.80;0.80;;;;;;;31.09;24.09;98485.75;5032721;28;20159;-78
2022/10/23 06:17:42;;;;;;;0.80;0.80;;;;;;;31.38;23.99;98475.50;5031412;28;20037;-79
2022/10/23 06:20:09;;;;;;;1.88;0.80;;;;;;;31.52;23.90;98474.09;5032905;28;20034;-79
2022/10/23 06:22:35;;;;;;;1.10;1.00;;;;;;;31.28;24.36;98482.44;5022473;28;20407;-78
2022/10/23 06:25:01;;;;;;;0.80;0.80;;;;;;;31.36;24.08;98488.59;5023759;28;20403;-78
2022/10/23 06:27:27;;;;;;;0.90;0.90;;;;;;;31.69;23.78;98495.19;5027680;28;20495;-79
2022/10/23 06:29:53;;;;;;;1.00;1.00;;;;;;;31.97;23.70;98499.53;5021559;28;20044;-79
2022/10/23 06:32:19;;;;;;;1.40;1.30;;;;;;;32.09;23.39;98500.63;5032479;28;20518;-79
2022/10/23 06:34:48;;;;;;;1.95;1.85;;;;;;;31.87;23.41;98494.34;5026882;28;20063;-82
2022/10/23 06:37:14;;;;;;;3.13;2.50;;;;;;;31.15;24.77;98500.88;5032908;28;20069;-79
2022/10/23 06:39:40;;;;;;;2.10;1.83;;;;;;;30.61;25.23;98510.88;5031986;28;20033;-79
2022/10/23 06:42:07;;;;;;;2.85;2.05;;;;;;;30.72;25.33;98514.03;5033626;28;20495;-79
2022/10/23 06:44:33;;;;;;;2.70;2.30;;;;;;;31.25;24.66;98511.75;5025275;28;20033;-80
2022/10/23 06:47:00;;;;;;;2.10;1.90;;;;;;;31.71;24.12;98521.06;5030399;28;20084;-79
2022/10/23 06:49:27;;;;;;;2.95;2.45;;;;;;;31.74;24.13;98514.41;5031143;28;20021;-79
2022/10/23 06:51:53;;;;;;;2.67;2.45;;;;;;;31.05;25.29;98513.47;5032932;28;20048;-79
2022/10/23 06:54:19;;;;;;;2.58;1.98;;;;;;;30.81;25.84;98515.31;5031731;28;20116;-79
2022/10/23 06:56:45;;;;;;;1.88;1.70;;;;;;;30.83;25.56;98519.25;5033317;28;20040;-79
2022/10/23 06:59:13;;;;;;;1.55;1.30;;;;;;;31.21;25.30;98521.69;5050594;28;20033;-79
2022/10/23 07:01:39;;;;;;;1.88;1.17;;;;;;;31.56;24.65;98513.66;5033270;28;20040;-79
2022/10/23 07:04:05;;;;;;;1.83;1.30;;;;;;;31.87;24.66;98517.88;5032497;28;20025;-79
2022/10/23 07:06:31;;;;;;;1.63;1.52;;;;;;;32.21;24.12;98527.28;5031715;28;20037;-80
2022/10/23 07:08:58;;;;;;;2.15;1.58;;;;;;;32.19;23.67;98535.47;5026712;28;20017;-80
2022/10/23 07:11:24;;;;;;;2.53;1.80;;;;;;;32.09;23.46;98535.50;5031540;28;20109;-80
2022/10/23 07:13:52;;;;;;;1.73;1.63;;;;;;;31.83;24.06;98542.81;5028949;28;20037;-79
2022/10/23 07:16:20;;;;;;;2.42;2.17;;;;;;;32.07;24.40;98540.88;5021910;28;20462;-80
2022/10/23 07:18:47;;;;;;;3.25;2.95;;;;;;;32.37;23.64;98544.72;5033695;28;20099;-81
2022/10/23 07:21:14;;;;;;;4.65;2.25;;;;;;;32.48;23.75;98542.16;5033221;28;20571;-80
2022/10/23 07:23:41;;;;;;;1.58;1.48;;;;;;;32.36;24.18;98548.84;5033060;28;20480;-81
2022/10/23 07:26:15;;;;;;;1.95;1.50;;;;;;;32.43;24.28;98557.03;5029414;28;20191;-80
2022/10/23 07:28:45;;;;;;;1.55;1.35;;;;;;;32.49;23.75;98548.59;5032535;28;20079;-79
2022/10/23 07:31:11;;;;;;;2.03;1.20;;;;;;;32.65;23.85;98545.41;5032797;28;20080;-80
2022/10/23 07:33:38;;;;;;;2.40;1.17;;;;;;;32.82;23.83;98554.31;5033013;28;20119;-81
2022/10/23 07:36:08;;;;;;;1.90;1.17;;;;;;;33.03;24.33;98545.53;5033288;28;20059;-80
2022/10/23 07:38:35;;;;;;;1.42;1.27;;;;;;;32.92;23.94;98548.09;5031960;28;20021;-80
2022/10/23 07:41:01;;;;;;;2.60;1.75;;;;;;;32.67;24.33;98546.50;5032313;28;20037;-80
2022/10/23 07:43:28;;;;;;;1.95;1.83;;;;;;;32.08;25.30;98559.50;5027225;28;20029;-79
2022/10/23 07:45:54;;;;;;;1.60;1.50;;;;;;;31.84;25.52;98567.09;5030262;28;20056;-80
2022/10/23 07:48:22;;;;;;;3.97;1.77;;;;;;;32.14;26.15;98561.72;5032190;28;20059;-81
2022/10/23 07:50:49;;;;;;;1.92;1.52;;;;;;;31.10;26.83;98567.56;5033623;28;20032;-79
2022/10/23 07:53:23;;;;;;;2.20;2.10;;;;;;;30.42;27.83;98565.91;5033151;28;20040;-79
2022/10/23 07:55:57;;;;;;;2.47;2.00;;;;;;;30.82;27.12;98571.56;5025140;28;20033;-79
2022/10/23 07:58:25;;;;;;;2.00;1.70;;;;;;;30.38;27.32;98575.81;5032274;28;20045;-80
2022/10/23 08:01:02;;;;;;;3.47;2.63;;;;;;;30.05;28.46;98572.63;5030891;28;20036;-81
2022/10/23 08:03:31;;;;;;;2.47;2.28;;;;;;;30.56;27.16;98573.84;5033149;28;20391;-80
2022/10/23 08:05:57;;;;;;;4.30;2.25;;;;;;;31.27;26.14;98579.41;5032321;28;20033;-80
2022/10/23 08:08:24;;;;;;;2.50;2.25;;;;;;;31.21;26.10;98569.91;5031833;28;20041;-80
2022/10/23 08:10:52;;;;;;;2.97;2.25;;;;;;;31.82;25.96;98566.00;5032512;28;20032;-81
2022/10/23 08:13:19;;;;;;;2.20;2.05;;;;;;;32.18;25.68;98559.47;5027499;28;20180;-80
2022/10/23 08:15:47;;;;;;;2.58;2.38;;;;;;;32.40;24.90;98554.34;5026565;28;20376;-81
2022/10/23 08:18:14;;;;;;;2.22;2.03;;;;;;;32.51;24.88;98561.09;5031309;28;20423;-81
2022/10/23 08:20:44;;;;;;;2.25;1.90;;;;;;;32.86;24.44;98554.94;5032462;28;20033;-81
2022/10/23 08:23:12;;;;;;;3.03;2.35;;;;;;;33.25;24.52;98557.41;5032955;28;20482;-80
2022/10/23 08:25:39;;;;;;;2.72;1.75;;;;;;;33.31;24.00;98558.28;5032069;28;20030;-81
2022/10/23 08:28:06;;;;;;;1.40;1.30;;;;;;;33.41;24.34;98559.78;5030561;28;20045;-81
2022/10/23 08:30:33;;;;;;;1.95;1.80;;;;;;;33.50;23.98;98561.75;5029516;28;20036;-81
2022/10/23 08:33:01;;;;;;;2.33;1.80;;;;;;;33.38;23.69;98563.59;5031217;28;20065;-80
2022/10/23 08:35:27;;;;;;;1.60;1.50;;;;;;;33.65;23.93;98561.84;5028411;28;20053;-81
2022/10/23 08:37:53;;;;;;;2.15;1.42;;;;;;;33.76;23.63;98559.97;5019486;28;20119;-81
2022/10/23 08:40:23;;;;;;;1.40;1.27;;;;;;;33.78;24.04;98548.09;5032681;28;20072;-80
2022/10/23 08:43:04;;;;;;;3.00;1.40;;;;;;;33.89;23.61;98554.78;5031237;28;20064;-81
2022/10/23 08:45:38;;;;;;;2.97;1.30;;;;;;;33.93;23.71;98548.91;5032055;28;20029;-81
2022/10/23 08:48:19;;;;;;;1.40;1.30;;;;;;;33.96;23.41;98550.75;5031214;28;20037;-81
2022/10/23 08:50:55;;;;;;;1.23;1.10;;;;;;;33.80;23.35;98537.78;5037619;28;20498;-81
2022/10/23 08:53:24;;;;;;;1.33;1.10;;;;;;;33.53;23.24;98545.81;5028420;28;20052;-81
2022/10/23 08:56:11;;;;;;;1.70;1.27;;;;;;;33.49;23.94;98550.88;5024454;28;20025;-81
2022/10/23 08:58:51;;;;;;;1.33;1.13;;;;;;;33.32;24.25;98559.06;5031759;28;20057;-81
2022/10/23 09:01:57;;;;;;;1.30;1.20;;;;;;;33.20;23.62;98565.81;5026375;28;20533;-81
2022/10/23 09:04:23;;;;;;;1.33;1.17;;;;;;;33.29;24.14;98574.28;4995932;28;20053;-80
2022/10/23 09:07:08;;;;;;;1.95;1.33;;;;;;;33.48;24.52;98570.00;5014628;28;20025;-80
2022/10/23 09:10:06;;;;;;;1.67;0.95;;;;;;;33.46;24.19;98577.47;5025015;28;20108;-81
2022/10/23 09:12:32;;;;;;;1.80;0.90;;;;;;;33.83;23.76;98564.50;5020350;28;20030;-82
2022/10/23 09:15:20;;;;;;;1.33;1.15;;;;;;;34.03;24.43;98558.94;5025590;28;20026;-82
2022/10/23 09:17:48;;;;;;;0.80;0.80;;;;;;;34.02;23.49;98554.50;5030620;28;20040;-80
2022/10/23 09:20:22;;;;;;;1.05;1.05;;;;;;;33.87;23.56;98550.84;5029793;28;20042;-78
2022/10/23 09:23:17;;;;;;;2.15;1.25;;;;;;;33.50;24.56;98563.81;5031973;28;20072;-79
2022/10/23 09:25:46;;;;;;;1.95;1.20;;;;;;;33.86;23.84;98560.69;5030214;28;20053;-78
2022/10/23 09:28:31;;;;;;;1.08;0.90;;;;;;;34.20;24.52;98562.88;5023669;28;20034;-77
2022/10/23 09:31:08;;;;;;;1.27;1.10;;;;;;;34.22;23.20;98557.47;5013931;28;20034;-77
2022/10/23 09:33:36;;;;;;;0.85;0.82;;;;;;;33.29;25.13;98563.69;5025098;28;20037;-77
2022/10/23 09:36:07;;;;;;;1.10;0.90;;;;;;;33.70;24.54;98553.38;5031228;28;20402;-78
2022/10/23 09:38:36;;;;;;;3.33;0.90;;;;;;;33.72;24.05;98544.38;5025290;28;20053;-80
2022/10/23 09:41:16;;;;;;;0.73;0.73;;;;;;;32.81;25.87;98555.59;5028651;28;20037;-81
2022/10/23 09:43:42;;;;;;;0.70;0.70;;;;;;;33.46;24.02;98552.63;5031525;28;20021;-80
2022/10/23 09:46:10;;;;;;;0.80;0.80;;;;;;;33.15;24.78;98546.53;5028883;28;20022;-80
2022/10/23 09:48:38;;;;;;;0.73;0.68;;;;;;;33.53;24.50;98545.81;5019891;28;20499;-80
2022/10/23 09:51:19;;;;;;;0.75;0.75;;;;;;;33.56;24.46;98544.84;5027165;28;20018;-80
2022/10/23 09:53:59;;;;;;;0.70;0.70;;;;;;;33.24;24.06;98549.31;5032479;28;20567;-80
2022/10/23 09:56:46;;;;;;;0.60;0.60;;;;;;;33.53;23.89;98543.75;5033408;28;20034;-79
2022/10/23 09:59:12;;;;;;;0.77;0.65;;;;;;;33.92;22.96;98530.22;5032852;28;20388;-79
2022/10/23 10:01:46;;;;;;;0.60;0.60;;;;;;;34.20;23.28;98525.03;5034948;28;20033;-80
2022/10/23 10:04:14;;;;;;;0.82;0.50;;;;;;;34.41;22.99;98524.59;5035496;28;20041;-80
2022/10/23 10:06:41;;;;;;;0.88;0.63;;;;;;;34.70;22.69;98526.63;5033933;28;20025;-79
2022/10/23 10:09:14;;;;;;;1.00;0.60;;;;;;;34.85;22.92;98526.56;5034323;28;20116;-80
2022/10/23 10:11:43;;;;;;;0.80;0.60;;;;;;;34.33;22.91;98523.41;5034547;28;20479;-80
2022/10/23 10:14:44;;;;;;;1.15;0.80;;;;;;;34.18;22.45;98542.63;5031279;28;20439;-80
2022/10/23 10:17:40;;;;;;;0.77;0.50;;;;;;;34.10;23.76;98530.03;5032628;28;20042;-80
2022/10/23 10:20:12;;;;;;;1.23;0.52;;;;;;;33.85;23.79;98531.41;5030313;28;20041;-80
2022/10/23 10:23:03;;;;;;;0.93;0.63;;;;;;;34.02;23.22;98523.94;5030954;28;20033;-80
2022/10/23 10:25:50;;;;;;;0.73;0.70;;;;;;;33.80;22.89;98522.75;5032253;28;20119;-80
2022/10/23 10:28:21;;;;;;;0.50;0.50;;;;;;;34.14;22.33;98527.78;5033124;28;20136;-80
2022/10/23 10:30:59;;;;;;;1.15;0.75;;;;;;;33.41;23.43;98522.00;5032806;28;20030;-80
2022/10/23 10:33:56;;;;;;;0.90;0.60;;;;;;;33.50;24.39;98512.56;5028700;28;20040;-80
2022/10/23 10:36:51;;;;;;;0.93;0.77;;;;;;;34.07;22.97;98505.41;5033491;28;20494;-80
2022/10/23 10:39:38;;;;;;;0.98;0.60;;;;;;;33.59;23.00;98498.28;5033490;28;20519;-80
2022/10/23 10:42:46;;;;;;;0.57;0.57;;;;;;;33.67;23.40;98497.41;5028356;28;20116;-80
2022/10/23 10:45:32;;;;;;;2.15;0.50;;;;;;;33.83;23.76;98494.06;5033986;28;20099;-80
2022/10/23 10:48:36;;;;;;;1.33;0.70;;;;;;;32.84;23.76;98504.19;5030327;28;20072;-80
2022/10/23 10:51:17;;;;;;;0.70;0.70;;;;;;;33.80;23.84;98489.34;5032611;28;20111;-80
2022/10/23 10:53:52;;;;;;;1.95;0.60;;;;;;;34.60;22.82;98488.88;5029964;28;20045;-80
2022/10/23 10:56:21;;;;;;;1.33;0.50;;;;;;;34.99;21.88;98480.84;5033972;28;20036;-80
2022/10/23 10:58:59;;;;;;;1.10;1.00;;;;;;;34.99;22.51;98480.03;5031536;28;20034;-80
2022/10/23 11:01:40;;;;;;;1.20;0.70;;;;;;;34.81;23.08;98474.63;5025666;28;20083;-80
2022/10/23 11:04:21;;;;;;;0.50;0.50;;;;;;;35.08;22.97;98474.25;5057980;28;20042;-80
2022/10/23 11:06:52;;;;;;;0.40;0.40;;;;;;;35.27;21.93;98459.16;5027832;28;20044;-80
2022/10/23 11:09:28;;;;;;;1.08;0.70;;;;;;;34.78;23.74;98455.66;5026816;28;20021;-81
2022/10/23 11:11:55;;;;;;;0.65;0.65;;;;;;;34.10;22.21;98458.78;5032129;28;20474;-80
2022/10/23 11:14:26;;;;;;;0.70;0.70;;;;;;;34.44;22.92;98460.09;5030258;28;20029;-80
2022/10/23 11:17:16;;;;;;;0.40;0.40;;;;;;;33.96;22.60;98440.41;5027503;28;20411;-81
2022/10/23 11:19:54;;;;;;;1.77;0.60;;;;;;;32.80;25.65;98458.09;5030260;28;20041;-81
2022/10/23 11:22:41;;;;;;;0.80;0.80;;;;;;;32.08;24.51;98445.88;5029354;28;20538;-81
2022/10/23 11:25:42;;;;;;;0.88;0.77;;;;;;;32.25;23.11;98445.47;5030228;28;20435;-83
2022/10/23 11:28:21;;;;;;;1.25;0.70;;;;;;;32.52;26.28;98445.34;5030801;28;20041;-81
2022/10/23 11:31:02;;;;;;;1.00;0.65;;;;;;;33.05;24.00;98434.09;5021283;28;20034;-81
2022/10/23 11:33:37;;;;;;;1.15;0.85;;;;;;;32.75;24.41;98442.50;5024225;28;20056;-81
2022/10/23 11:36:31;;;;;;;0.90;0.80;;;;;;;33.13;25.41;98436.06;5032107;28;20047;-81
2022/10/23 11:39:14;;;;;;;0.70;0.70;;;;;;;33.56;23.70;98428.06;5059396;28;20490;-81
2022/10/23 11:41:52;;;;;;;1.05;0.95;;;;;;;33.70;23.31;98430.13;5032391;28;20043;-81
2022/10/23 11:44:26;;;;;;;1.45;1.35;;;;;;;32.26;27.20;98441.34;5031394;28;20041;-81
2022/10/23 11:47:23;;;;;;;1.98;1.42;;;;;;;31.43;26.85;98437.22;5028547;28;20034;-81
2022/10/23 11:49:49;;;;;;;2.03;1.92;;;;;;;32.60;25.61;98440.88;5025505;28;20040;-82
2022/10/23 11:52:24;;;;;;;2.30;2.10;;;;;;;32.86;25.98;98430.53;5027186;28;20037;-82
2022/10/23 11:55:16;;;;;;;1.77;1.67;;;;;;;32.54;26.58;98434.25;5020693;28;20034;-82
2022/10/23 11:57:45;;;;;;;1.75;1.60;;;;;;;33.22;25.01;98423.78;5026424;28;20021;-81